Lloydminster Airport
CYLL : now visible

Airfield :











YOU CAN JOIN US ON...

 
LOGIN :

Register | Disclaimer

   EN    FR    IT 

 









Legend :    VFR   Marginal VFR   IFR   Intensive IFR   Very Intensive IFR
Visi :
Ceiling :
>= 8 km
>= 3000ft
5 to 8 km
1000 to 3000 ft
1500m to 5 km
500 to 1000 ft
800 to 1500m
200 to 500 ft
< 800m
< 200 ft
Symbols :   Thunderstorms  Fog  Heavy snow  Heavy precipitations  Wind > 20 kt







- Airport Elevation : 2193 ft
- IATA code : YLL


CYLL - Lloydminster

CURRENT METAR :
  • 201500Z 24011KT 15SM FEW075 SCT210 10/08 A2975 RMK AC1CI2 SLP088 DENSITY ALT 2300FT

EXPIRED METARs :
  • 201318Z 23007KT 12SM SCT065 BKN090 08/08 A2974 RMK SC3AC2 SLP088 DENSITY ALT 2200FT
  • 201300Z 23008KT 12SM -RA BKN065 BKN100 08/08 A2974 RMK SC5AC2 SLP088 DENSITY ALT 2200FT
  • 201254Z AUTO 23008KT 9SM -RA FEW060 BKN070 BKN083 OVC100 08/08 A2974 RMK SLP087

TAF AMD TAF CYLL
Valid from the 20 at 12:00 until the 21 at 00:00 UTC


201208Z 2012/2024 23008KT P6SM FEW040 BKN080 BKN120
TEMPO 2012/2021 P6SM -SHRA BKN040 BKN070
FM202100 30015KT P6SM BKN030
TEMPO 2021/2024 BKN020 RMK FCST BASED ON AUTO OBS. NXT FCST BY 201800Z
No reported NOTAMs for that airfield.



MET'MAP, your aeronautical weather chart ! - Copyright ORBIFLY December 2007 - Disclaimer

ORBIFLY MET'MAP TEAM :

Programming & Development : Alexandra Zaïnal
Concept & Development : Baudouin d'Aumeries
Co-Development & Prog : Marc-Olivier Méhu
Technical & hardware support : Manuel Goepfert

Contact : metmap@orbifly.com




SOURCES & CREDITS :

   NOAA       Earth
Advisory